Millenium Air

Millenium Air Since 1998



 METAR AND TAF INFORMATION
METAR FOR VABB
ADDS - METARS form results

(0503 UTC 18 April 2021)
Data provider http://aviationweather.gov/metar/data/
 
METAR text: VABB 180500Z 29004KT 3500 FU NSC 34/22 Q1012 NOSIG
Conditions at: VABB (BOMBAY/SANTACRUZ, IN) observed 0500 UTC 18 April 2021
Temperature: 34.0°C (93°F)
Dewpoint: 22.0°C (72°F) [RH = 50%]
Pressure (altimeter): 29.88 inches Hg (1012.0 mb)
Winds: from the WNW (290 degrees) at 5 MPH (4 knots; 2.1 m/s)
Visibility: 2.17 miles (3.49 km)
Ceiling: at least 12,000 feet AGL
Clouds: sky clear below 12,000 feet AGL
Weather: FU  (smoke)

METAR text: VABB 180430Z 02005KT 3500 FU NSC 33/23 Q1012 NOSIG
Conditions at: VABB (BOMBAY/SANTACRUZ, IN) observed 0430 UTC 18 April 2021
Temperature: 33.0°C (91°F)
Dewpoint: 23.0°C (73°F) [RH = 56%]
Pressure (altimeter): 29.88 inches Hg (1012.0 mb)
Winds: from the NNE (20 degrees) at 6 MPH (5 knots; 2.6 m/s)
Visibility: 2.17 miles (3.49 km)
Ceiling: at least 12,000 feet AGL
Clouds: sky clear below 12,000 feet AGL
Weather: FU  (smoke)

Forecast for: VABB (BOMBAY/SANTACRUZ, IN)
Text: TAF VABB 180500Z 1806/1815 28012KT 4000 FU FEW020
Forecast period: 0600 to 1500 UTC 18 April 2021
Forecast type: FROM: standard forecast or significant change
Winds: from the W (280 degrees) at 14 MPH (12 knots; 6.2 m/s)
Visibility: 2.49 miles (4.01 km)
Ceiling: at least 12,000 feet AGL
Clouds: few clouds at 2000 feet AGL
Weather: FU  (smoke)

 AIRPORT MAP

 RUNWAY INFORMATION
Runway 09 Runway length 11302 ft Runway width 148 ft
Runway elevation 15 ft Runway displaced threshold 465 ft Runway heading 89
Runway 27 Runway length 11302 ft Runway width 148 ft
Runway elevation 22 ft Runway displaced threshold 1581 ft Runway heading 269
Runway 14 Runway length 9596 ft Runway width 150 ft
Runway elevation 37 ft Runway displaced threshold 1238 ft Runway heading 134
Runway 32 Runway length 9596 ft Runway width 150 ft
Runway elevation 26 ft Runway displaced threshold 853 ft Runway heading 314

 AIRPORT FREQUENCIES
Type ACC Name MUMBAI Frequency 120.5 MHZ
Type APP Name MUMBAI APP Frequency 127.9 MHZ
Type ATIS Name MUMBAI ATI Frequency 126.4 MHZ
Type CLD Name MUMBAI CLR Frequency 121.85 MHZ
Type GND Name MUMBAI GND Frequency 121.9 MHZ
Type RDO Name MUMBAI RDO Frequency 1008.4 MHZ
Type RDR Name RDR Frequency 119.3 MHZ
Type TWR Name MUMBAI TWR Frequency 118.1 MHZ

 AIRPORT NEAR NAVIGATION AIDS
Type VOR-DME Name Mumbai Frequency 116600 KHZ